Time;durP1;ratioP1;P1;durP2;ratioP2;P2;SDS_P1;SDS_P2;PMS_P1;PMS_P2;Temp;Humidity;BMP_temperature;BMP_pressure;BME280_temperature;BME280_humidity;BME280_pressure;Samples;Min_cycle;Max_cycle;Signal;HPM_P1;HPM_P2
2022/04/20 00:01:35;;;;;;;;;;;;;;;-0.71;100.00;99639.47;4994801;28;893;-61
2022/04/20 00:04:02;;;;;;;;;;;;;;;-0.95;100.00;99633.91;4994773;28;867;-61
2022/04/20 00:06:30;;;;;;;;;;;;;;;-1.16;100.00;99642.00;4994656;28;819;-61
2022/04/20 00:08:57;;;;;;;;;;;;;;;-1.39;100.00;99641.47;4994580;28;1890;-61
2022/04/20 00:11:23;;;;;;;;;;;;;;;-1.56;100.00;99648.56;4994512;28;811;-61
2022/04/20 00:13:50;;;;;;;;;;;;;;;-1.34;100.00;99646.75;4994818;28;865;-61
2022/04/20 00:16:16;;;;;;;;;;;;;;;-1.00;100.00;99647.66;4994547;28;795;-61
2022/04/20 00:18:43;;;;;;;;;;;;;;;-0.89;100.00;99651.59;4994464;28;831;-61
2022/04/20 00:21:10;;;;;;;;;;;;;;;-0.87;100.00;99650.13;4994403;28;803;-61
2022/04/20 00:23:36;;;;;;;;;;;;;;;-0.92;100.00;99646.81;4994510;28;952;-61
2022/04/20 00:26:02;;;;;;;;;;;;;;;-1.01;100.00;99646.84;4994164;28;1285;-61
2022/04/20 00:28:28;;;;;;;;;;;;;;;-1.13;100.00;99646.75;4994326;28;868;-61
2022/04/20 00:30:55;;;;;;;;;;;;;;;-1.30;100.00;99653.88;4994213;28;1957;-61
2022/04/20 00:33:21;;;;;;;;;;;;;;;-1.40;100.00;99648.81;4994285;28;831;-61
2022/04/20 00:35:50;;;;;;;;;;;;;;;-1.52;100.00;99646.78;4994355;28;898;-61
2022/04/20 00:38:17;;;;;;;;;;;;;;;-1.66;100.00;99651.66;4994431;28;870;-61
2022/04/20 00:40:49;;;;;;;;;;;;;;;-1.74;100.00;99649.75;4993933;28;859;-61
2022/04/20 00:43:16;;;;;;;;;;;;;;;-1.86;100.00;99651.22;4994007;28;835;-61
2022/04/20 00:45:43;;;;;;;;;;;;;;;-1.92;100.00;99649.00;4993952;28;882;-61
2022/04/20 00:48:13;;;;;;;;;;;;;;;-1.92;100.00;99647.09;4993948;28;905;-61
2022/04/20 00:50:41;;;;;;;;;;;;;;;-1.94;100.00;99649.34;4993853;28;1886;-61
2022/04/20 00:53:07;;;;;;;;;;;;;;;-2.01;100.00;99643.59;4993808;28;933;-61
2022/04/20 00:55:34;;;;;;;;;;;;;;;-2.08;100.00;99652.22;4993840;28;846;-61
2022/04/20 00:58:00;;;;;;;;;;;;;;;-2.07;100.00;99650.28;4993746;28;815;-60
2022/04/20 01:00:29;;;;;;;;;;;;;;;-1.94;100.00;99651.22;4993723;28;842;-60
2022/04/20 01:02:56;;;;;;;;;;;;;;;-1.98;100.00;99659.22;4993627;28;827;-60
2022/04/20 01:05:23;;;;;;;;;;;;;;;-1.97;100.00;99651.88;4993060;28;839;-59
2022/04/20 01:07:50;;;;;;;;;;;;;;;-1.96;100.00;99648.03;4993591;28;823;-59
2022/04/20 01:10:16;;;;;;;;;;;;;;;-1.98;100.00;99653.81;4993379;28;1943;-59
2022/04/20 01:12:44;;;;;;;;;;;;;;;-2.02;100.00;99655.56;4993426;28;828;-59
2022/04/20 01:15:12;;;;;;;;;;;;;;;-2.12;100.00;99653.19;4993416;28;818;-59
2022/04/20 01:17:38;;;;;;;;;;;;;;;-2.20;100.00;99659.41;4993424;28;898;-59
2022/04/20 01:20:13;;;;;;;;;;;;;;;-2.12;100.00;99651.25;4993606;28;807;-59
2022/04/20 01:22:41;;;;;;;;;;;;;;;-1.60;100.00;99657.66;4993361;28;893;-60
2022/04/20 01:25:08;;;;;;;;;;;;;;;-1.63;100.00;99653.69;4993074;28;1162;-59
2022/04/20 01:27:35;;;;;;;;;;;;;;;-1.77;100.00;99651.22;4993227;28;858;-59
2022/04/20 01:30:02;;;;;;;;;;;;;;;-1.89;100.00;99654.56;4993083;28;1906;-60
2022/04/20 01:32:29;;;;;;;;;;;;;;;-1.96;100.00;99648.84;4993142;28;854;-60
2022/04/20 01:34:55;;;;;;;;;;;;;;;-2.01;100.00;99649.00;4993056;28;811;-60
2022/04/20 01:37:22;;;;;;;;;;;;;;;-2.06;100.00;99655.41;4992999;28;894;-60
2022/04/20 01:39:49;;;;;;;;;;;;;;;-2.09;100.00;99655.25;4992845;28;910;-60
2022/04/20 01:42:15;;;;;;;;;;;;;;;-2.21;100.00;99657.81;4992983;28;890;-60
2022/04/20 01:44:42;;;;;;;;;;;;;;;-2.30;100.00;99661.34;4993170;28;856;-60
2022/04/20 01:47:09;;;;;;;;;;;;;;;-2.39;100.00;99660.56;4993047;28;819;-59
2022/04/20 01:49:35;;;;;;;;;;;;;;;-2.36;100.00;99656.41;4992866;28;1882;-59
2022/04/20 01:52:02;;;;;;;;;;;;;;;-2.30;100.00;99655.91;4992928;28;863;-59
2022/04/20 01:54:29;;;;;;;;;;;;;;;-2.29;100.00;99651.28;4993095;28;1262;-59
2022/04/20 01:56:55;;;;;;;;;;;;;;;-2.29;100.00;99657.50;4992905;28;823;-59
2022/04/20 01:59:22;;;;;;;;;;;;;;;-2.23;100.00;99652.72;4992718;28;1348;-59
2022/04/20 02:04:34;;;;;;;;;;;;;;;-2.35;100.00;99642.53;4992551;28;681;-59
2022/04/20 02:07:00;;;;;;;;;;;;;;;-2.37;100.00;99647.50;4992604;28;827;-59
2022/04/20 02:09:27;;;;;;;;;;;;;;;-2.36;100.00;99651.00;4992340;28;1882;-59
2022/04/20 02:11:53;;;;;;;;;;;;;;;-2.39;100.00;99654.31;4992511;28;811;-59
2022/04/20 02:14:20;;;;;;;;;;;;;;;-2.40;100.00;99658.94;4992424;28;874;-59
2022/04/20 02:16:47;;;;;;;;;;;;;;;-2.36;100.00;99664.53;4991576;28;838;-59
2022/04/20 02:19:13;;;;;;;;;;;;;;;-2.34;100.00;99668.50;4992358;28;870;-59
2022/04/20 02:21:40;;;;;;;;;;;;;;;-2.34;100.00;99663.09;4992376;28;819;-59
2022/04/20 02:24:06;;;;;;;;;;;;;;;-2.35;100.00;99655.28;4992501;28;924;-59
2022/04/20 02:26:33;;;;;;;;;;;;;;;-2.33;100.00;99655.75;4992120;28;1312;-59
2022/04/20 02:28:59;;;;;;;;;;;;;;;-2.36;100.00;99662.59;4992150;28;1973;-59
2022/04/20 02:31:26;;;;;;;;;;;;;;;-2.42;100.00;99663.09;4992288;28;858;-59
2022/04/20 02:33:53;;;;;;;;;;;;;;;-2.41;100.00;99662.78;4992357;28;858;-59
2022/04/20 02:36:19;;;;;;;;;;;;;;;-2.48;100.00;99667.84;4992176;28;870;-59
2022/04/20 02:38:47;;;;;;;;;;;;;;;-2.48;100.00;99670.56;4992111;28;827;-59
2022/04/20 02:41:14;;;;;;;;;;;;;;;-2.52;100.00;99672.31;4992148;28;780;-58
2022/04/20 02:43:40;;;;;;;;;;;;;;;-2.55;100.00;99667.53;4992086;28;867;-59
2022/04/20 02:46:07;;;;;;;;;;;;;;;-2.57;100.00;99662.44;4992139;28;842;-59
2022/04/20 02:48:35;;;;;;;;;;;;;;;-2.54;100.00;99666.41;4992091;28;811;-59
2022/04/20 02:51:01;;;;;;;;;;;;;;;-2.59;100.00;99659.25;4991964;28;1886;-59
2022/04/20 02:53:27;;;;;;;;;;;;;;;-2.59;100.00;99661.16;4992068;28;956;-59
2022/04/20 02:55:54;;;;;;;;;;;;;;;-2.54;100.00;99655.59;4992104;28;839;-58
2022/04/20 02:58:21;;;;;;;;;;;;;;;-2.52;100.00;99658.78;4974505;28;1646;-59
2022/04/20 03:00:46;;;;;;;;;;;;;;;-2.52;100.00;99661.47;4992027;28;879;-59
2022/04/20 03:03:12;;;;;;;;;;;;;;;-2.57;100.00;99656.25;4991947;28;913;-59
2022/04/20 03:05:39;;;;;;;;;;;;;;;-2.65;100.00;99657.81;4991949;28;815;-59
2022/04/20 03:08:06;;;;;;;;;;;;;;;-2.64;100.00;99661.34;4991855;28;918;-59
2022/04/20 03:10:33;;;;;;;;;;;;;;;-2.73;100.00;99661.31;4991878;28;1890;-59
2022/04/20 03:12:59;;;;;;;;;;;;;;;-2.85;100.00;99670.06;4992055;28;893;-59
2022/04/20 03:15:26;;;;;;;;;;;;;;;-2.84;100.00;99668.13;4991806;28;869;-58
2022/04/20 03:17:53;;;;;;;;;;;;;;;-2.83;100.00;99675.94;4991919;28;806;-59
2022/04/20 03:20:19;;;;;;;;;;;;;;;-2.85;100.00;99674.69;4991857;28;818;-59
2022/04/20 03:22:46;;;;;;;;;;;;;;;-2.90;100.00;99679.13;4991756;28;1569;-58
2022/04/20 03:25:13;;;;;;;;;;;;;;;-2.96;100.00;99677.69;4991514;28;1246;-58
2022/04/20 03:27:39;;;;;;;;;;;;;;;-2.95;100.00;99676.56;4993232;28;807;-58
2022/04/20 03:30:06;;;;;;;;;;;;;;;-2.91;100.00;99674.81;4995333;28;1976;-58
2022/04/20 03:32:33;;;;;;;;;;;;;;;-2.88;100.00;99679.59;4995377;28;898;-58
2022/04/20 03:35:00;;;;;;;;;;;;;;;-2.84;100.00;99674.34;4995368;28;822;-58
2022/04/20 03:37:27;;;;;;;;;;;;;;;-2.81;100.00;99673.72;4977613;28;1280;-58
2022/04/20 03:39:54;;;;;;;;;;;;;;;-2.79;100.00;99671.50;4995423;28;866;-58
2022/04/20 03:42:21;;;;;;;;;;;;;;;-2.81;100.00;99672.94;4995224;28;835;-58
2022/04/20 03:44:48;;;;;;;;;;;;;;;-2.79;100.00;99666.09;4995172;28;854;-58
2022/04/20 03:47:14;;;;;;;;;;;;;;;-2.72;100.00;99671.81;4995114;28;871;-58
2022/04/20 03:49:41;;;;;;;;;;;;;;;-2.63;100.00;99671.81;4995086;28;1886;-58
2022/04/20 03:52:07;;;;;;;;;;;;;;;-2.58;100.00;99676.28;4995003;28;807;-58
2022/04/20 03:54:36;;;;;;;;;;;;;;;-2.59;100.00;99675.50;4994813;28;969;-58
2022/04/20 03:57:03;;;;;;;;;;;;;;;-2.57;100.00;99677.88;4994905;28;819;-58
2022/04/20 03:59:33;;;;;;;;;;;;;;;-2.55;100.00;99665.63;4994909;28;823;-58
2022/04/20 04:02:00;;;;;;;;;;;;;;;-2.48;100.00;99673.25;4994782;28;898;-58
2022/04/20 04:04:27;;;;;;;;;;;;;;;-2.43;100.00;99681.25;4994791;28;847;-58
2022/04/20 04:06:54;;;;;;;;;;;;;;;-2.36;100.00;99688.88;4994692;28;843;-58
2022/04/20 04:09:20;;;;;;;;;;;;;;;-2.33;100.00;99691.72;4994774;28;1882;-59
2022/04/20 04:11:47;;;;;;;;;;;;;;;-2.33;100.00;99685.53;4994733;28;866;-58
2022/04/20 04:14:14;;;;;;;;;;;;;;;-2.34;100.00;99687.44;4994601;28;863;-58
2022/04/20 04:16:40;;;;;;;;;;;;;;;-2.28;100.00;99693.50;4977067;28;1288;-58
2022/04/20 04:19:08;;;;;;;;;;;;;;;-2.24;100.00;99696.34;4994431;28;831;-58
2022/04/20 04:21:40;;;;;;;;;;;;;;;-2.21;100.00;99695.72;4994690;28;918;-58
2022/04/20 04:24:08;;;;;;;;;;;;;;;-2.18;100.00;99698.56;4994681;28;951;-58
2022/04/20 04:26:35;;;;;;;;;;;;;;;-2.06;100.00;99697.94;4994207;28;1266;-58
2022/04/20 04:29:01;;;;;;;;;;;;;;;-1.91;100.00;99699.34;4994339;28;1982;-58
2022/04/20 04:31:28;;;;;;;;;;;;;;;-1.82;100.00;99702.06;4994302;28;791;-58
2022/04/20 04:33:54;;;;;;;;;;;;;;;-1.81;100.00;99699.03;4994246;28;819;-58
2022/04/20 04:36:21;;;;;;;;;;;;;;;-1.87;100.00;99706.53;4994045;28;953;-58
2022/04/20 04:38:48;;;;;;;;;;;;;;;-1.86;100.00;99707.31;4993284;28;882;-58
2022/04/20 04:41:15;;;;;;;;;;;;;;;-1.77;100.00;99699.97;4994007;28;958;-59
2022/04/20 04:43:41;;;;;;;;;;;;;;;-1.60;100.00;99709.97;4994000;28;792;-59
2022/04/20 04:48:52;;;;;;;;;;;;;;;-1.42;100.00;99724.28;4993857;28;2011;-59
2022/04/20 04:51:19;;;;;;;;;;;;;;;-1.44;100.00;99731.94;4993895;28;878;-59
2022/04/20 04:53:46;;;;;;;;;;;;;;;-1.39;100.00;99737.16;4993847;28;784;-59
2022/04/20 04:56:12;;;;;;;;;;;;;;;-1.26;100.00;99732.66;4993820;28;882;-59
2022/04/20 04:58:39;;;;;;;;;;;;;;;-1.03;100.00;99733.22;4993784;28;799;-59
2022/04/20 05:01:05;;;;;;;;;;;;;;;-0.77;100.00;99737.72;4993903;28;811;-59
2022/04/20 05:03:32;;;;;;;;;;;;;;;-0.57;100.00;99739.66;4993691;28;835;-59
2022/04/20 05:05:59;;;;;;;;;;;;;;;-0.35;100.00;99735.84;4993577;28;834;-59
2022/04/20 05:08:25;;;;;;;;;;;;;;;-0.03;100.00;99733.50;4993629;28;838;-58
2022/04/20 05:10:52;;;;;;;;;;;;;;;0.51;100.00;99733.50;4993423;28;1898;-59
2022/04/20 05:13:19;;;;;;;;;;;;;;;0.73;100.00;99729.56;4993589;28;897;-59
2022/04/20 05:15:45;;;;;;;;;;;;;;;0.85;100.00;99733.41;4993453;28;843;-59
2022/04/20 05:18:12;;;;;;;;;;;;;;;1.61;100.00;99740.88;4993579;28;827;-59
2022/04/20 05:20:39;;;;;;;;;;;;;;;2.15;100.00;99738.91;4993582;28;848;-59
2022/04/20 05:23:09;;;;;;;;;;;;;;;2.63;100.00;99742.53;4993384;28;953;-59
2022/04/20 05:25:35;;;;;;;;;;;;;;;3.13;100.00;99743.75;4992931;28;1240;-60
2022/04/20 05:28:02;;;;;;;;;;;;;;;3.08;100.00;99754.97;4993213;28;843;-60
2022/04/20 05:30:28;;;;;;;;;;;;;;;3.10;100.00;99760.09;4993104;28;1902;-60
2022/04/20 05:32:55;;;;;;;;;;;;;;;2.81;100.00;99751.16;4993123;28;893;-60
2022/04/20 05:35:21;;;;;;;;;;;;;;;2.22;100.00;99760.94;4993005;28;871;-62
2022/04/20 05:43:18;;;;;;;;;;;;;;;1.22;100.00;99761.47;4992919;28;677;-62
2022/04/20 05:45:43;;;;;;;;;;;;;;;1.35;100.00;99763.03;4992878;28;890;-62
2022/04/20 05:48:10;;;;;;;;;;;;;;;2.01;100.00;99763.84;4992804;28;867;-62
2022/04/20 05:50:36;;;;;;;;;;;;;;;2.32;100.00;99763.13;4992557;28;1899;-62
2022/04/20 05:53:03;;;;;;;;;;;;;;;2.62;100.00;99765.50;4975288;28;1289;-63
2022/04/20 05:55:29;;;;;;;;;;;;;;;2.94;100.00;99768.25;4992740;28;858;-63
2022/04/20 05:57:56;;;;;;;;;;;;;;;2.93;100.00;99770.19;4992654;28;819;-62
2022/04/20 06:00:22;;;;;;;;;;;;;;;2.95;100.00;99765.19;4992908;28;931;-63
2022/04/20 06:02:49;;;;;;;;;;;;;;;3.30;100.00;99758.22;4992602;28;851;-63
2022/04/20 06:05:16;;;;;;;;;;;;;;;3.81;100.00;99761.69;4992424;28;858;-63
2022/04/20 06:07:42;;;;;;;;;;;;;;;3.93;100.00;99758.06;4992599;28;851;-63
2022/04/20 06:10:09;;;;;;;;;;;;;;;4.04;100.00;99750.84;4992441;28;1882;-63
2022/04/20 06:12:35;;;;;;;;;;;;;;;4.72;100.00;99742.38;4992423;28;796;-63
2022/04/20 06:15:02;;;;;;;;;;;;;;;5.25;100.00;99743.25;4992476;28;815;-64
2022/04/20 06:17:28;;;;;;;;;;;;;;;5.86;100.00;99752.34;4992451;28;847;-64
2022/04/20 06:19:55;;;;;;;;;;;;;;;5.83;96.08;99744.09;4992295;28;916;-64
2022/04/20 06:22:22;;;;;;;;;;;;;;;6.61;97.76;99746.97;4992387;28;851;-64
2022/04/20 06:24:48;;;;;;;;;;;;;;;7.56;94.55;99728.91;4992255;28;1222;-64
2022/04/20 06:27:15;;;;;;;;;;;;;;;8.03;88.02;99725.59;4974854;28;844;-64
2022/04/20 06:29:42;;;;;;;;;;;;;;;7.61;89.10;99726.94;4992193;28;1914;-64
2022/04/20 06:32:09;;;;;;;;;;;;;;;8.12;89.45;99721.28;4992199;28;811;-64
2022/04/20 06:34:35;;;;;;;;;;;;;;;8.46;87.66;99731.28;4992172;28;816;-64
2022/04/20 06:37:03;;;;;;;;;;;;;;;8.95;88.73;99721.50;4992228;28;859;-65
2022/04/20 06:39:29;;;;;;;;;;;;;;;8.86;86.00;99732.13;4992136;28;927;-64
2022/04/20 06:41:56;;;;;;;;;;;;;;;7.91;88.49;99733.00;4992239;28;831;-64
2022/04/20 06:44:23;;;;;;;;;;;;;;;7.39;92.25;99718.56;4974603;28;1308;-65
2022/04/20 06:46:49;;;;;;;;;;;;;;;6.90;90.68;99731.53;4992091;28;835;-64
2022/04/20 06:49:16;;;;;;;;;;;;;;;6.28;93.20;99731.31;4992021;28;1886;-64
2022/04/20 06:59:58;;;;;;;;;;;;;;;8.55;91.55;99726.16;4992080;28;660;-64
2022/04/20 07:02:25;;;;;;;;;;;;;;;9.36;87.48;99724.63;4993097;28;855;-64
2022/04/20 07:04:52;;;;;;;;;;;;;;;9.53;86.24;99723.03;4978349;28;1282;-64
2022/04/20 07:07:19;;;;;;;;;;;;;;;8.55;87.39;99715.16;4995755;28;850;-63
2022/04/20 07:09:46;;;;;;;;;;;;;;;8.30;90.03;99718.63;4995713;28;1953;-64
2022/04/20 07:12:12;;;;;;;;;;;;;;;9.22;86.62;99712.81;4995766;28;827;-64
2022/04/20 07:14:39;;;;;;;;;;;;;;;9.64;82.81;99703.69;4995680;28;835;-63
2022/04/20 07:17:07;;;;;;;;;;;;;;;10.40;84.09;99718.78;4995757;28;823;-64
2022/04/20 07:19:34;;;;;;;;;;;;;;;11.10;80.25;99715.16;4995609;28;867;-64
2022/04/20 07:22:01;;;;;;;;;;;;;;;11.38;78.56;99702.25;4995823;28;890;-62
2022/04/20 07:24:27;;;;;;;;;;;;;;;11.30;76.63;99698.75;4995494;28;1142;-63
2022/04/20 07:26:54;;;;;;;;;;;;;;;11.22;75.35;99700.81;4995502;28;863;-62
2022/04/20 07:29:21;;;;;;;;;;;;;;;10.67;76.03;99704.41;4995450;28;2041;-61
2022/04/20 07:31:48;;;;;;;;;;;;;;;10.23;76.98;99703.06;4995376;28;787;-61
2022/04/20 07:34:15;;;;;;;;;;;;;;;10.00;77.80;99698.81;4977794;28;1864;-61
2022/04/20 07:36:41;;;;;;;;;;;;;;;9.75;79.34;99707.22;4995496;28;819;-61
2022/04/20 07:39:08;;;;;;;;;;;;;;;10.09;80.74;99705.88;4977877;28;887;-61
2022/04/20 07:41:38;;;;;;;;;;;;;;;10.06;76.96;99706.69;4995241;28;803;-61
2022/04/20 07:44:06;;;;;;;;;;;;;;;10.22;77.75;99709.78;4995217;28;878;-61
2022/04/20 07:46:32;;;;;;;;;;;;;;;10.61;77.09;99708.81;4995177;28;863;-62
2022/04/20 07:50:18;;;;;;;;;;;;;;;10.66;76.36;99694.53;4994970;28;1906;-61
2022/04/20 07:51:46;;;;;;;;;;;;;;;10.77;77.79;99703.53;4994822;28;904;-61
2022/04/20 07:54:12;;;;;;;;;;;;;;;10.75;76.37;99694.09;4995021;28;819;-61
2022/04/20 07:56:39;;;;;;;;;;;;;;;10.91;74.76;99694.34;4995003;28;831;-61
2022/04/20 07:59:05;;;;;;;;;;;;;;;10.82;74.65;99699.56;4994981;28;843;-61
2022/04/20 08:01:32;;;;;;;;;;;;;;;10.60;74.73;99701.69;4994823;28;1056;-61
2022/04/20 08:03:59;;;;;;;;;;;;;;;10.59;72.38;99702.88;4994718;28;847;-60
2022/04/20 08:06:27;;;;;;;;;;;;;;;10.44;74.46;99699.44;4994752;28;839;-61
2022/04/20 08:08:53;;;;;;;;;;;;;;;10.98;77.28;99705.34;4994708;28;831;-61
2022/04/20 08:11:20;;;;;;;;;;;;;;;11.34;76.56;99695.97;4994614;28;1890;-61
2022/04/20 08:16:31;;;;;;;;;;;;;;;10.29;76.83;99687.69;4994862;28;700;-61
2022/04/20 08:18:57;;;;;;;;;;;;;;;10.22;76.29;99688.47;4994542;28;831;-60
2022/04/20 08:21:24;;;;;;;;;;;;;;;9.45;78.29;99685.59;4994503;28;808;-61
2022/04/20 08:23:51;;;;;;;;;;;;;;;9.96;78.80;99681.50;4994592;28;1024;-60
2022/04/20 08:26:18;;;;;;;;;;;;;;;10.43;76.76;99684.03;4994228;28;1459;-60
2022/04/20 08:28:44;;;;;;;;;;;;;;;10.39;76.36;99686.84;4994393;28;863;-60
2022/04/20 08:31:10;;;;;;;;;;;;;;;10.64;77.42;99688.63;4994429;28;1942;-59
2022/04/20 08:33:36;;;;;;;;;;;;;;;10.53;76.57;99674.88;4994169;28;831;-60
2022/04/20 08:36:03;;;;;;;;;;;;;;;10.53;77.31;99682.41;4994245;28;827;-60
2022/04/20 08:38:30;;;;;;;;;;;;;;;10.42;78.89;99666.66;4994142;28;836;-60
2022/04/20 08:41:00;;;;;;;;;;;;;;;10.82;77.19;99672.72;4994156;28;851;-60
2022/04/20 08:43:28;;;;;;;;;;;;;;;11.01;74.23;99660.31;4994099;28;811;-59
2022/04/20 08:45:54;;;;;;;;;;;;;;;11.38;75.87;99650.44;4993971;28;819;-60
2022/04/20 08:48:21;;;;;;;;;;;;;;;12.02;73.32;99646.16;4994057;28;822;-60
2022/04/20 08:50:48;;;;;;;;;;;;;;;11.69;73.05;99646.94;4993952;28;1882;-60
2022/04/20 08:53:16;;;;;;;;;;;;;;;11.50;72.95;99642.81;4993963;28;831;-60
2022/04/20 08:55:44;;;;;;;;;;;;;;;11.76;76.02;99649.66;4993903;28;835;-60
2022/04/20 08:58:10;;;;;;;;;;;;;;;12.32;73.51;99643.78;4993995;28;1084;-60
2022/04/20 09:00:37;;;;;;;;;;;;;;;12.38;72.49;99644.88;4993796;28;819;-60
2022/04/20 09:03:04;;;;;;;;;;;;;;;12.40;70.08;99639.72;4993620;28;855;-59
2022/04/20 09:05:35;;;;;;;;;;;;;;;12.41;71.64;99642.03;4993629;28;861;-60
2022/04/20 09:08:11;;;;;;;;;;;;;;;12.56;70.65;99645.38;4993558;28;915;-60
2022/04/20 09:10:39;;;;;;;;;;;;;;;12.40;72.18;99643.25;4993506;28;1948;-60
2022/04/20 09:13:07;;;;;;;;;;;;;;;12.13;70.63;99642.47;4976523;28;866;-59
2022/04/20 09:15:35;;;;;;;;;;;;;;;12.05;73.78;99647.31;4993519;28;823;-60
2022/04/20 09:18:03;;;;;;;;;;;;;;;12.33;72.79;99645.34;4976007;28;1549;-60
2022/04/20 09:20:32;;;;;;;;;;;;;;;12.81;71.24;99653.31;4993415;28;878;-60
2022/04/20 09:23:03;;;;;;;;;;;;;;;13.11;73.49;99650.84;4993382;28;1020;-60
2022/04/20 09:25:33;;;;;;;;;;;;;;;12.81;70.51;99644.22;4992581;28;1470;-60
2022/04/20 09:27:59;;;;;;;;;;;;;;;13.00;74.94;99643.47;4993265;28;890;-60
2022/04/20 09:30:31;;;;;;;;;;;;;;;13.04;69.82;99641.44;4993014;28;1910;-60
2022/04/20 09:32:57;;;;;;;;;;;;;;;12.91;72.00;99636.91;4993300;28;1245;-60
2022/04/20 09:35:24;;;;;;;;;;;;;;;13.05;69.51;99642.97;4993098;28;835;-60
2022/04/20 09:38:07;;;;;;;;;;;;;;;12.85;70.31;99640.16;4993228;28;866;-60
2022/04/20 09:40:36;;;;;;;;;;;;;;;12.64;71.10;99637.75;4993031;28;804;-60
2022/04/20 09:43:04;;;;;;;;;;;;;;;12.59;70.94;99639.00;4992907;28;887;-59
2022/04/20 09:45:31;;;;;;;;;;;;;;;12.31;73.14;99640.22;4992865;28;923;-59
2022/04/20 09:50:44;;;;;;;;;;;;;;;12.14;71.40;99638.47;4992788;28;1890;-59
2022/04/20 09:53:13;;;;;;;;;;;;;;;11.99;74.07;99624.84;4992635;28;966;-60
2022/04/20 09:55:41;;;;;;;;;;;;;;;11.96;73.96;99628.44;4992660;28;927;-59
2022/04/20 10:26:34;;;;;;;;;;;;;;;12.00;74.37;99609.00;4959083;26;2644;-58
2022/04/20 10:29:17;;;;;;;;;;;;;;;12.17;74.88;99607.97;4972958;28;877;-58
2022/04/20 10:32:05;;;;;;;;;;;;;;;12.51;75.49;99606.28;4972839;28;1124;-58
2022/04/20 10:34:33;;;;;;;;;;;;;;;12.79;72.43;99608.56;4972873;28;1836;-58
2022/04/20 10:37:01;;;;;;;;;;;;;;;12.57;72.19;99610.94;4972008;28;865;-58
2022/04/20 10:39:30;;;;;;;;;;;;;;;12.31;71.72;99611.72;4972647;28;1171;-58
2022/04/20 10:42:12;;;;;;;;;;;;;;;11.88;73.46;99610.34;4973074;28;822;-58
2022/04/20 10:44:57;;;;;;;;;;;;;;;11.63;74.59;99608.66;4972752;28;939;-58
2022/04/20 10:47:27;;;;;;;;;;;;;;;11.74;76.35;99600.22;4972627;28;863;-58
2022/04/20 10:50:11;;;;;;;;;;;;;;;12.20;77.01;99596.03;4972533;28;1960;-58
2022/04/20 10:52:38;;;;;;;;;;;;;;;12.31;73.34;99581.22;4972648;28;906;-58
2022/04/20 10:55:06;;;;;;;;;;;;;;;12.32;74.93;99585.59;4972594;28;890;-58
2022/04/20 10:57:34;;;;;;;;;;;;;;;12.44;74.32;99579.47;4972487;28;946;-58
2022/04/20 11:00:25;;;;;;;;;;;;;;;12.67;77.57;99573.13;4972645;28;974;-59
2022/04/20 11:02:53;;;;;;;;;;;;;;;13.10;73.17;99568.78;4961056;28;1885;-59
2022/04/20 11:05:21;;;;;;;;;;;;;;;12.95;72.91;99560.75;4955321;28;813;-58
2022/04/20 11:08:04;;;;;;;;;;;;;;;12.82;70.84;99557.81;4955271;28;1383;-58
2022/04/20 11:10:31;;;;;;;;;;;;;;;12.86;71.05;99555.75;4972371;28;1970;-58
2022/04/20 11:19:04;;;;;;;;;;;;;;;13.12;70.68;99536.66;4972484;28;656;-58
2022/04/20 11:21:31;;;;;;;;;;;;;;;12.88;73.54;99538.69;4972622;28;823;-58
2022/04/20 11:24:05;;;;;;;;;;;;;;;12.99;72.74;99541.25;4972586;28;1035;-59
2022/04/20 11:26:34;;;;;;;;;;;;;;;13.18;72.62;99531.38;4972135;28;1255;-58
2022/04/20 11:29:01;;;;;;;;;;;;;;;12.91;73.63;99528.72;4972325;28;859;-58
2022/04/20 11:31:36;;;;;;;;;;;;;;;13.03;77.96;99528.09;4972205;28;1970;-58
2022/04/20 11:34:04;;;;;;;;;;;;;;;12.86;71.64;99524.44;4972323;28;870;-58
2022/04/20 11:36:30;;;;;;;;;;;;;;;12.57;76.14;99524.97;4972362;28;1445;-59
2022/04/20 11:38:57;;;;;;;;;;;;;;;13.11;80.83;99515.66;4972312;28;811;-59
2022/04/20 11:41:23;;;;;;;;;;;;;;;13.79;80.94;99514.25;4972117;28;939;-59
2022/04/20 11:43:50;;;;;;;;;;;;;;;13.78;73.07;99504.34;4972233;28;879;-59
2022/04/20 11:46:17;;;;;;;;;;;;;;;13.37;74.12;99496.53;4972172;28;846;-58
2022/04/20 11:48:56;;;;;;;;;;;;;;;13.37;71.74;99504.84;4973585;28;915;-58
2022/04/20 11:51:28;;;;;;;;;;;;;;;13.11;71.07;99493.47;4975634;28;1883;-58
2022/04/20 11:53:55;;;;;;;;;;;;;;;13.22;74.25;99491.25;4975513;28;811;-58
2022/04/20 11:56:34;;;;;;;;;;;;;;;13.32;72.84;99499.81;4958168;28;1190;-58
2022/04/20 11:59:02;;;;;;;;;;;;;;;13.20;71.72;99487.34;4975593;28;839;-58
2022/04/20 12:01:29;;;;;;;;;;;;;;;13.25;75.63;99489.63;4975353;28;962;-59
2022/04/20 12:03:55;;;;;;;;;;;;;;;13.54;79.43;99481.47;4975337;28;905;-58
2022/04/20 12:06:24;;;;;;;;;;;;;;;13.63;76.33;99480.88;4975301;28;844;-58
2022/04/20 12:08:53;;;;;;;;;;;;;;;13.34;77.28;99475.19;4975246;28;859;-58
2022/04/20 12:11:20;;;;;;;;;;;;;;;13.37;82.24;99469.53;4975110;28;1902;-59
2022/04/20 12:13:46;;;;;;;;;;;;;;;13.39;84.14;99463.56;4975374;28;815;-59
2022/04/20 12:16:14;;;;;;;;;;;;;;;13.45;85.08;99459.84;4975093;28;929;-59
2022/04/20 12:18:45;;;;;;;;;;;;;;;13.47;85.56;99463.00;4975411;28;791;-59
2022/04/20 12:21:30;;;;;;;;;;;;;;;13.62;86.20;99455.13;4975069;28;924;-59
2022/04/20 12:23:56;;;;;;;;;;;;;;;13.96;87.08;99453.16;4974975;28;1037;-59
2022/04/20 12:26:29;;;;;;;;;;;;;;;13.95;85.54;99451.59;4974634;28;1392;-59
2022/04/20 12:29:01;;;;;;;;;;;;;;;13.42;83.17;99449.63;4974991;28;783;-59
2022/04/20 12:31:28;;;;;;;;;;;;;;;12.66;85.99;99441.25;4974967;28;1903;-59
2022/04/20 12:34:02;;;;;;;;;;;;;;;11.95;88.27;99433.00;4975582;28;822;-59
2022/04/20 12:36:31;;;;;;;;;;;;;;;10.99;87.72;99437.91;4974901;28;803;-59
2022/04/20 12:38:58;;;;;;;;;;;;;;;10.21;88.31;99432.78;4974730;28;851;-59
2022/04/20 12:41:35;;;;;;;;;;;;;;;9.70;91.32;99436.38;4974830;28;862;-61
2022/04/20 12:44:05;;;;;;;;;;;;;;;9.24;93.44;99453.97;4974651;28;803;-63
2022/04/20 12:46:33;;;;;;;;;;;;;;;8.66;92.79;99451.44;4974875;28;803;-66
2022/04/20 12:49:00;;;;;;;;;;;;;;;8.44;96.40;99455.44;4974770;28;796;-68
2022/04/20 12:51:27;;;;;;;;;;;;;;;8.34;98.32;99457.81;4974554;28;1875;-69
2022/04/20 12:53:55;;;;;;;;;;;;;;;8.21;98.56;99462.13;4974451;28;823;-69
2022/04/20 13:02:08;;;;;;;;;;;;;;;8.12;100.00;99461.75;4914699;29;1329;-74
2022/04/20 13:04:45;;;;;;;;;;;;;;;8.37;100.00;99458.97;4962651;28;973;-74
2022/04/20 13:07:12;;;;;;;;;;;;;;;8.64;100.00;99455.78;4974362;28;776;-74
2022/04/20 13:09:39;;;;;;;;;;;;;;;8.72;100.00;99460.88;4957235;28;1962;-73
2022/04/20 13:12:06;;;;;;;;;;;;;;;8.70;100.00;99462.47;4974278;28;816;-70
2022/04/20 13:14:33;;;;;;;;;;;;;;;8.65;100.00;99458.16;4974321;28;839;-67
2022/04/20 13:16:59;;;;;;;;;;;;;;;8.89;100.00;99458.47;4974215;28;918;-68
2022/04/20 13:19:26;;;;;;;;;;;;;;;9.06;100.00;99463.13;4974240;28;875;-70
2022/04/20 13:21:53;;;;;;;;;;;;;;;9.08;100.00;99466.28;4956615;28;1427;-70
2022/04/20 13:29:49;;;;;;;;;;;;;;;8.51;100.00;99463.69;4973717;28;1902;-69
2022/04/20 13:32:16;;;;;;;;;;;;;;;8.33;100.00;99464.47;4973775;28;816;-69
2022/04/20 13:34:43;;;;;;;;;;;;;;;8.26;100.00;99456.25;4973740;28;813;-67
2022/04/20 13:37:09;;;;;;;;;;;;;;;8.21;100.00;99464.88;4973697;28;812;-67
2022/04/20 13:39:35;;;;;;;;;;;;;;;8.20;100.00;99455.06;4973904;28;850;-67
2022/04/20 13:42:02;;;;;;;;;;;;;;;8.16;100.00;99457.03;4973518;28;827;-68
2022/04/20 13:44:28;;;;;;;;;;;;;;;8.09;100.00;99454.28;4973591;28;816;-67
2022/04/20 13:46:55;;;;;;;;;;;;;;;8.12;100.00;99451.50;4973518;28;879;-68
2022/04/20 13:49:22;;;;;;;;;;;;;;;8.06;100.00;99444.06;4956263;28;1890;-67
2022/04/20 13:51:48;;;;;;;;;;;;;;;8.10;100.00;99431.84;4973613;28;827;-67
2022/04/20 13:54:15;;;;;;;;;;;;;;;8.09;100.00;99437.78;4973707;28;835;-67
2022/04/20 13:56:42;;;;;;;;;;;;;;;8.09;100.00;99435.03;4973397;28;827;-67
2022/04/20 13:59:09;;;;;;;;;;;;;;;8.08;100.00;99431.47;4956003;28;867;-67
2022/04/20 14:01:36;;;;;;;;;;;;;;;8.11;100.00;99425.19;4973273;28;882;-68
2022/04/20 14:04:03;;;;;;;;;;;;;;;8.25;100.00;99424.38;4973264;28;887;-68
2022/04/20 14:06:30;;;;;;;;;;;;;;;8.38;100.00;99408.22;4973250;28;812;-68
2022/04/20 14:08:56;;;;;;;;;;;;;;;8.42;100.00;99417.28;4973157;28;863;-67
2022/04/20 14:11:24;;;;;;;;;;;;;;;8.38;100.00;99414.53;4972971;28;1887;-68
2022/04/20 14:13:52;;;;;;;;;;;;;;;8.32;100.00;99420.81;4973136;28;811;-67
2022/04/20 14:16:18;;;;;;;;;;;;;;;8.14;100.00;99427.13;4973069;28;880;-68